SBMQ/MCP METAR and TAF weather

Enter ICAO airport designator
Station Type Date Time Source
SBMQ METAR 2019/10/21 04:00 UTC NOAA

SBMQ 210400Z 36004KT CAVOK 27/27 Q1010


Station Type Date Time Source
SBMQ Decoded METAR 2019/10/21 04:00 UTC NOAA

Macapa, Brazil (SBMQ) 00-02N 050-03W
Oct 21, 2019 - 12:00 AM EDT / 2019.10.21 0400 UTC
Wind: from the N (360 degrees) at 5 MPH (4 KT):0
Visibility: greater than 7 mile(s):0
Temperature: 80 F (27 C)
Dew Point: 80 F (27 C)
Relative Humidity: 100%
Pressure (altimeter): 29.83 in. Hg (1010 hPa)
ob: SBMQ 210400Z 36004KT CAVOK 27/27 Q1010
cycle: 4

Station Type Date Time Source
SBMQ TAF 2019/10/21 06:56 UTC NOAA

TAF SBMQ 210230Z 2106/2206 36005KT 9999 SCT020 TN25/2108Z TX35/2116Z
BECMG 2106/2108 03005KT
BECMG 2110/2112 06005KT
BECMG 2112/2114 08010KT
BECMG 2116/2118 06010KT PROB30 2120/2123 SCT020 FEW030TCU
RMK PGW

Example: see airport list